Time;durP1;ratioP1;P1;durP2;ratioP2;P2;SDS_P1;SDS_P2;PMS_P1;PMS_P2;Temp;Humidity;BMP_temperature;BMP_pressure;BME280_temperature;BME280_humidity;BME280_pressure;Samples;Min_cycle;Max_cycle;Signal;HPM_P1;HPM_P2
2022/05/17 00:01:14;;;;;;;8.52;7.00;;;25.30;57.00;;;;;;5015617;28;20045;-76
2022/05/17 00:03:40;;;;;;;10.23;7.15;;;25.30;56.70;;;;;;5001460;28;20029;-76
2022/05/17 00:06:06;;;;;;;9.70;7.28;;;25.30;56.50;;;;;;5026706;28;20025;-77
2022/05/17 00:08:33;;;;;;;8.85;7.10;;;25.20;56.50;;;;;;5032938;28;20022;-77
2022/05/17 00:10:58;;;;;;;8.73;6.75;;;25.00;56.60;;;;;;5032745;28;20017;-76
2022/05/17 00:13:24;;;;;;;11.25;7.97;;;25.00;56.60;;;;;;5014165;28;20123;-76
2022/05/17 00:15:53;;;;;;;9.77;7.18;;;25.00;56.80;;;;;;5015767;28;20489;-76
2022/05/17 00:18:20;;;;;;;9.55;7.10;;;24.90;57.00;;;;;;5033234;28;20032;-77
2022/05/17 00:20:47;;;;;;;10.88;7.38;;;24.90;56.60;;;;;;5015740;28;20038;-77
2022/05/17 00:23:15;;;;;;;9.50;7.30;;;24.90;56.70;;;;;;5026286;28;20429;-76
2022/05/17 00:25:42;;;;;;;8.68;6.80;;;24.80;56.80;;;;;;5032891;28;20075;-76
2022/05/17 00:28:08;;;;;;;8.88;7.00;;;24.90;56.90;;;;;;5031693;28;20107;-76
2022/05/17 00:30:34;;;;;;;8.05;6.95;;;24.90;57.10;;;;;;5012506;28;20037;-76
2022/05/17 00:33:00;;;;;;;8.95;7.05;;;24.80;57.10;;;;;;5016988;28;20018;-77
2022/05/17 00:35:26;;;;;;;9.23;7.57;;;24.90;57.20;;;;;;5032829;28;20041;-77
2022/05/17 00:37:51;;;;;;;9.20;6.38;;;25.00;57.10;;;;;;5031891;28;20022;-77
2022/05/17 00:40:18;;;;;;;8.85;6.65;;;24.80;57.50;;;;;;5032122;28;20037;-76
2022/05/17 00:42:44;;;;;;;7.63;5.75;;;24.70;57.80;;;;;;5029230;28;20018;-77
2022/05/17 00:45:10;;;;;;;7.80;6.32;;;24.70;57.90;;;;;;5029992;28;20071;-76
2022/05/17 00:47:47;;;;;;;9.65;6.53;;;24.50;58.20;;;;;;5031351;28;20025;-76
2022/05/17 00:50:34;;;;;;;8.10;6.28;;;24.60;57.90;;;;;;5032303;28;20033;-77
2022/05/17 00:53:04;;;;;;;8.43;6.68;;;24.90;57.40;;;;;;5025763;28;20053;-77
2022/05/17 00:55:43;;;;;;;8.63;6.25;;;25.10;56.90;;;;;;5020784;28;20050;-76
2022/05/17 00:58:10;;;;;;;11.20;7.03;;;25.10;56.90;;;;;;5033846;28;20423;-76
2022/05/17 01:00:46;;;;;;;11.02;6.57;;;25.10;57.10;;;;;;5030422;28;20044;-77
2022/05/17 01:03:15;;;;;;;8.60;6.50;;;25.20;57.00;;;;;;5029102;28;20404;-76
2022/05/17 01:05:46;;;;;;;14.32;6.68;;;25.30;56.90;;;;;;5032863;28;20057;-77
2022/05/17 01:08:13;;;;;;;8.27;6.90;;;25.20;57.20;;;;;;5032419;28;20034;-76
2022/05/17 01:10:39;;;;;;;8.82;6.15;;;25.30;57.10;;;;;;5032113;28;20037;-76
2022/05/17 01:15:50;;;;;;;9.90;7.10;;;25.40;57.10;;;;;;5032338;28;20502;-76
2022/05/17 01:18:16;;;;;;;10.38;6.93;;;25.40;56.90;;;;;;5018727;28;20051;-76
2022/05/17 01:20:43;;;;;;;10.55;7.03;;;25.40;57.00;;;;;;5031957;28;20053;-77
2022/05/17 01:23:09;;;;;;;10.88;7.25;;;25.30;56.80;;;;;;5033703;28;20029;-77
2022/05/17 01:25:35;;;;;;;9.52;7.45;;;25.00;57.50;;;;;;5014244;28;20025;-76
2022/05/17 01:28:07;;;;;;;9.43;6.70;;;25.10;57.60;;;;;;5013087;28;20025;-76
2022/05/17 01:30:33;;;;;;;9.18;6.88;;;25.10;57.70;;;;;;5014955;28;20033;-76
2022/05/17 01:32:59;;;;;;;10.30;7.20;;;25.00;57.50;;;;;;5013810;28;20076;-77
2022/05/17 01:35:25;;;;;;;9.57;7.35;;;25.10;57.40;;;;;;5002322;28;20426;-75
2022/05/17 01:37:54;;;;;;;10.15;6.70;;;25.20;57.30;;;;;;5029873;28;20104;-77
2022/05/17 01:40:21;;;;;;;9.50;6.97;;;24.90;57.50;;;;;;5014142;28;20037;-77
2022/05/17 01:42:47;;;;;;;8.13;7.15;;;24.80;57.60;;;;;;5031373;28;20049;-75
2022/05/17 01:45:13;;;;;;;10.00;6.75;;;24.70;58.40;;;;;;5031678;28;20087;-76
2022/05/17 01:47:38;;;;;;;8.73;6.63;;;24.80;58.30;;;;;;5011700;28;20472;-75
2022/05/17 01:50:05;;;;;;;8.52;6.82;;;25.00;58.10;;;;;;5015227;28;20361;-77
2022/05/17 01:52:31;;;;;;;8.75;6.68;;;25.20;57.50;;;;;;5013374;28;20472;-76
2022/05/17 01:54:56;;;;;;;9.43;6.65;;;25.30;57.40;;;;;;5031640;28;20049;-76
2022/05/17 01:57:22;;;;;;;8.98;6.75;;;25.40;57.60;;;;;;5014016;28;20033;-76
2022/05/17 01:59:47;;;;;;;9.52;7.30;;;25.40;57.50;;;;;;5031947;28;20091;-76
2022/05/17 02:02:13;;;;;;;9.50;6.95;;;25.50;57.30;;;;;;5021430;28;20361;-77
2022/05/17 02:04:39;;;;;;;11.60;7.35;;;25.60;57.20;;;;;;5013519;28;20033;-75
2022/05/17 02:07:05;;;;;;;8.57;6.97;;;25.60;57.00;;;;;;5008393;28;20099;-77
2022/05/17 02:09:30;;;;;;;8.40;7.00;;;25.50;57.10;;;;;;5011057;28;20129;-76
2022/05/17 02:11:56;;;;;;;11.80;7.45;;;25.40;57.40;;;;;;5034671;28;20021;-77
2022/05/17 02:14:22;;;;;;;8.27;6.88;;;25.30;57.50;;;;;;5035812;28;20033;-76
2022/05/17 02:16:47;;;;;;;9.65;7.60;;;25.20;57.30;;;;;;5029598;28;20580;-76
2022/05/17 02:19:13;;;;;;;10.25;7.38;;;25.20;57.40;;;;;;5006506;28;20021;-76
2022/05/17 02:21:39;;;;;;;8.55;7.13;;;25.10;57.50;;;;;;5016860;28;20041;-76
2022/05/17 02:24:06;;;;;;;10.15;7.07;;;25.10;57.50;;;;;;5035358;28;20024;-76
2022/05/17 02:26:32;;;;;;;9.30;6.45;;;25.10;57.70;;;;;;5035363;28;20037;-76
2022/05/17 02:28:59;;;;;;;9.70;7.43;;;25.10;57.80;;;;;;5036119;28;20056;-76
2022/05/17 02:31:24;;;;;;;11.50;7.43;;;25.00;58.10;;;;;;5034185;28;20017;-77
2022/05/17 02:33:50;;;;;;;8.10;7.07;;;25.00;57.90;;;;;;5035235;28;20032;-76
2022/05/17 02:36:16;;;;;;;11.23;7.50;;;25.20;57.90;;;;;;5034821;28;20041;-76
2022/05/17 02:38:43;;;;;;;9.65;8.48;;;25.30;57.70;;;;;;5016631;28;20040;-77
2022/05/17 02:41:10;;;;;;;10.02;7.45;;;25.20;57.60;;;;;;5034216;28;20037;-76
2022/05/17 02:43:36;;;;;;;8.50;7.00;;;25.30;57.70;;;;;;5035629;28;20383;-75
2022/05/17 02:46:02;;;;;;;10.75;7.50;;;25.30;57.70;;;;;;5016967;28;20140;-76
2022/05/17 02:48:27;;;;;;;11.55;7.30;;;25.20;57.70;;;;;;5034624;28;20388;-76
2022/05/17 02:50:53;;;;;;;9.68;7.18;;;25.20;57.90;;;;;;5034960;28;20029;-76
2022/05/17 02:53:19;;;;;;;9.18;6.95;;;24.90;58.60;;;;;;5016511;28;20060;-77
2022/05/17 02:55:44;;;;;;;7.70;6.55;;;24.80;58.40;;;;;;5025617;28;20097;-77
2022/05/17 02:58:10;;;;;;;9.05;6.65;;;24.40;59.70;;;;;;5029116;28;20538;-75
2022/05/17 03:00:36;;;;;;;9.75;6.32;;;24.10;59.30;;;;;;5006407;28;20036;-74
2022/05/17 03:03:01;;;;;;;10.05;6.07;;;24.10;58.80;;;;;;5016870;28;20041;-79
2022/05/17 03:05:27;;;;;;;9.68;5.32;;;24.20;58.40;;;;;;5034746;28;20040;-80
2022/05/17 03:07:53;;;;;;;10.63;6.75;;;24.40;57.60;;;;;;5034236;28;20523;-83
2022/05/17 03:10:19;;;;;;;12.75;6.65;;;24.40;57.30;;;;;;5018602;28;20104;-85
2022/05/17 03:12:45;;;;;;;8.93;5.63;;;24.20;58.10;;;;;;5018058;28;20069;-80
2022/05/17 03:15:18;;;;;;;7.00;5.82;;;24.20;58.70;;;;;;5035304;28;20025;-79
2022/05/17 03:17:43;;;;;;;7.80;5.97;;;24.20;58.70;;;;;;5033940;28;20416;-84
2022/05/17 03:20:10;;;;;;;11.05;5.97;;;24.20;58.40;;;;;;5017840;28;20483;-79
2022/05/17 03:22:36;;;;;;;8.68;6.25;;;24.30;58.40;;;;;;5032604;28;20369;-76
2022/05/17 03:25:03;;;;;;;9.75;6.10;;;24.40;58.50;;;;;;5035217;28;20059;-81
2022/05/17 03:27:29;;;;;;;8.98;6.28;;;24.40;58.00;;;;;;5014283;28;20025;-76
2022/05/17 03:29:55;;;;;;;9.13;6.07;;;24.60;57.50;;;;;;5035229;28;20463;-77
2022/05/17 03:32:21;;;;;;;8.35;6.00;;;24.80;57.20;;;;;;5024541;28;20473;-77
2022/05/17 03:34:46;;;;;;;8.95;5.75;;;24.90;57.00;;;;;;5023010;28;20065;-77
2022/05/17 03:37:13;;;;;;;11.30;6.13;;;25.00;56.80;;;;;;5032381;28;20025;-74
2022/05/17 03:39:38;;;;;;;10.38;5.95;;;25.10;56.40;;;;;;5030070;28;20033;-75
2022/05/17 03:42:05;;;;;;;9.80;5.90;;;25.30;56.00;;;;;;5034047;28;20040;-74
2022/05/17 03:44:30;;;;;;;7.55;5.60;;;25.40;55.60;;;;;;5033666;28;20026;-75
2022/05/17 03:46:56;;;;;;;8.85;6.00;;;25.30;55.90;;;;;;5034380;28;20029;-76
2022/05/17 03:49:22;;;;;;;8.30;5.90;;;25.00;56.30;;;;;;5032730;28;20116;-77
2022/05/17 03:51:48;;;;;;;9.10;5.80;;;25.10;56.40;;;;;;5034490;28;20365;-75
2022/05/17 03:54:18;;;;;;;7.72;5.60;;;25.00;56.60;;;;;;5033688;28;20041;-74
2022/05/17 03:56:45;;;;;;;7.95;5.75;;;25.10;56.60;;;;;;5033066;28;20022;-75
2022/05/17 03:59:10;;;;;;;8.38;5.47;;;25.20;56.40;;;;;;5033486;28;20455;-74
2022/05/17 04:01:36;;;;;;;7.00;5.55;;;25.20;56.60;;;;;;5033162;28;20476;-74
2022/05/17 04:04:02;;;;;;;8.93;5.95;;;25.20;56.60;;;;;;5034252;28;20469;-75
2022/05/17 04:06:27;;;;;;;9.60;6.30;;;25.30;56.50;;;;;;5032169;28;20117;-75
2022/05/17 04:08:53;;;;;;;11.35;5.97;;;25.50;56.40;;;;;;5032681;28;20022;-74
2022/05/17 04:11:19;;;;;;;10.68;6.75;;;25.70;56.20;;;;;;5034015;28;20528;-75
2022/05/17 04:13:44;;;;;;;9.27;6.18;;;25.70;56.10;;;;;;5033796;28;20021;-75
2022/05/17 04:16:10;;;;;;;8.52;6.15;;;25.90;56.00;;;;;;5033573;28;20456;-75
2022/05/17 04:18:36;;;;;;;8.65;6.45;;;26.00;56.10;;;;;;5032024;28;20076;-75
2022/05/17 04:21:04;;;;;;;10.05;6.18;;;26.00;55.90;;;;;;5031903;28;20049;-75
2022/05/17 04:23:30;;;;;;;6.80;5.88;;;25.90;56.00;;;;;;5033571;28;20018;-75
2022/05/17 04:25:56;;;;;;;7.88;5.93;;;25.90;56.30;;;;;;5031769;28;20036;-74
2022/05/17 04:28:22;;;;;;;7.45;5.65;;;25.90;56.00;;;;;;5032254;28;20072;-75
2022/05/17 04:30:48;;;;;;;7.97;7.00;;;25.80;56.10;;;;;;5030468;28;20029;-75
2022/05/17 04:33:14;;;;;;;9.80;6.90;;;25.90;56.20;;;;;;5031493;28;20037;-75
2022/05/17 04:35:41;;;;;;;9.38;6.35;;;26.10;56.30;;;;;;5032675;28;20018;-74
2022/05/17 04:38:07;;;;;;;9.57;6.60;;;26.10;56.80;;;;;;5028843;28;20029;-74
2022/05/17 04:40:33;;;;;;;9.85;6.75;;;26.10;56.20;;;;;;5013900;28;20442;-75
2022/05/17 04:42:59;;;;;;;9.45;6.53;;;26.10;56.40;;;;;;5031769;28;20113;-76
2022/05/17 04:45:25;;;;;;;8.40;6.28;;;26.20;56.30;;;;;;5030366;28;20030;-76
2022/05/17 04:47:51;;;;;;;8.73;6.32;;;26.20;55.90;;;;;;5028399;28;20104;-75
2022/05/17 04:50:18;;;;;;;10.05;6.30;;;26.20;56.10;;;;;;5032069;28;20075;-74
2022/05/17 04:52:47;;;;;;;10.88;7.13;;;26.20;56.30;;;;;;5032069;28;20443;-74
2022/05/17 04:55:14;;;;;;;9.55;6.80;;;26.20;56.00;;;;;;5011665;28;20554;-78
2022/05/17 04:57:40;;;;;;;9.00;6.95;;;26.10;56.40;;;;;;5027895;28;20033;-75
2022/05/17 05:00:09;;;;;;;8.18;6.15;;;26.10;56.70;;;;;;5032736;28;20065;-77
2022/05/17 05:02:35;;;;;;;10.57;6.63;;;26.10;56.60;;;;;;5014995;28;20042;-75
2022/05/17 05:05:04;;;;;;;8.98;7.32;;;26.00;56.50;;;;;;5032856;28;20049;-75
2022/05/17 05:07:30;;;;;;;11.05;7.13;;;26.10;56.90;;;;;;5024325;28;20627;-79
2022/05/17 05:09:58;;;;;;;8.82;6.50;;;26.00;57.30;;;;;;5021977;28;20026;-88
2022/05/17 05:12:26;;;;;;;9.73;6.00;;;25.80;57.20;;;;;;5022833;28;20383;-78
2022/05/17 05:14:51;;;;;;;9.15;5.95;;;25.80;57.20;;;;;;5011720;28;20026;-73
2022/05/17 05:17:17;;;;;;;10.30;6.10;;;25.80;57.00;;;;;;5021632;28;20036;-75
2022/05/17 05:19:46;;;;;;;9.60;6.35;;;26.00;56.70;;;;;;4997730;28;20030;-75
2022/05/17 05:22:12;;;;;;;9.30;6.78;;;26.10;56.10;;;;;;5014755;28;20030;-75
2022/05/17 05:24:37;;;;;;;12.75;6.78;;;26.20;56.00;;;;;;5029853;28;20022;-74
2022/05/17 05:27:04;;;;;;;10.60;6.95;;;26.20;55.90;;;;;;5030219;28;20025;-74
2022/05/17 05:29:29;;;;;;;10.98;7.03;;;26.30;55.20;;;;;;5030775;28;20049;-75
2022/05/17 05:31:55;;;;;;;10.13;7.00;;;26.50;55.40;;;;;;5017818;28;20556;-75
2022/05/17 05:34:21;;;;;;;9.88;6.72;;;26.60;55.70;;;;;;5023533;28;20025;-74
2022/05/17 05:36:47;;;;;;;11.40;7.30;;;26.60;55.70;;;;;;5003718;28;20036;-75
2022/05/17 05:39:15;;;;;;;10.75;7.00;;;26.50;55.70;;;;;;5013948;28;20028;-75
2022/05/17 05:41:41;;;;;;;9.68;6.45;;;26.50;55.90;;;;;;5025242;28;20113;-76
2022/05/17 05:44:06;;;;;;;9.65;6.65;;;26.50;56.30;;;;;;5027513;28;20368;-75
2022/05/17 05:46:32;;;;;;;9.63;7.03;;;26.50;56.80;;;;;;5021967;28;20468;-76
2022/05/17 05:48:58;;;;;;;13.20;7.95;;;26.40;57.00;;;;;;5013954;28;20068;-76
2022/05/17 05:51:24;;;;;;;9.82;7.40;;;26.40;57.30;;;;;;4999507;28;20105;-75
2022/05/17 05:53:50;;;;;;;10.25;8.02;;;26.20;57.70;;;;;;5005454;28;20048;-78
2022/05/17 05:56:16;;;;;;;12.27;7.85;;;26.20;57.80;;;;;;5015744;28;20029;-76
2022/05/17 05:58:45;;;;;;;13.70;8.00;;;26.30;57.90;;;;;;5036134;28;20071;-76
2022/05/17 06:01:12;;;;;;;11.57;7.70;;;26.40;57.60;;;;;;5018541;28;20091;-77
2022/05/17 06:03:38;;;;;;;10.63;7.40;;;26.40;57.50;;;;;;5036236;28;20030;-76
2022/05/17 06:06:06;;;;;;;10.45;7.88;;;26.50;57.40;;;;;;5019135;28;20034;-74
2022/05/17 06:08:32;;;;;;;11.35;7.80;;;26.30;57.50;;;;;;5036237;28;20025;-74
2022/05/17 06:10:59;;;;;;;10.15;7.45;;;26.40;57.60;;;;;;5036073;28;20025;-79
2022/05/17 06:13:24;;;;;;;10.13;7.13;;;26.50;57.30;;;;;;5036093;28;20049;-77
2022/05/17 06:15:52;;;;;;;12.45;7.70;;;26.40;57.00;;;;;;5036855;28;20306;-76
2022/05/17 06:18:18;;;;;;;9.93;7.70;;;26.30;57.40;;;;;;5035882;28;20033;-75
2022/05/17 06:20:49;;;;;;;11.23;7.65;;;26.50;57.20;;;;;;5036282;28;20041;-75
2022/05/17 06:23:15;;;;;;;8.93;7.28;;;26.70;56.90;;;;;;5036066;28;20029;-75
2022/05/17 06:25:41;;;;;;;12.82;7.38;;;26.90;56.70;;;;;;5036194;28;20026;-75
2022/05/17 06:28:06;;;;;;;9.70;7.07;;;27.00;56.40;;;;;;5017373;28;20025;-75
2022/05/17 06:30:32;;;;;;;13.60;7.35;;;27.20;56.10;;;;;;5016221;28;20033;-76
2022/05/17 06:33:00;;;;;;;12.05;7.47;;;27.30;56.40;;;;;;5016432;28;20056;-76
2022/05/17 06:35:26;;;;;;;9.93;7.70;;;27.20;56.50;;;;;;5034770;28;20063;-81
2022/05/17 06:37:52;;;;;;;11.15;7.32;;;27.20;56.60;;;;;;5020233;28;20060;-76
2022/05/17 06:40:18;;;;;;;12.82;7.50;;;26.70;56.80;;;;;;5016354;28;20470;-81
2022/05/17 06:42:44;;;;;;;13.32;8.05;;;26.70;56.80;;;;;;4998383;28;20049;-75
2022/05/17 06:45:11;;;;;;;12.88;7.85;;;26.70;57.00;;;;;;5033366;28;20163;-89
2022/05/17 06:47:37;;;;;;;9.50;7.70;;;26.90;56.70;;;;;;5017825;28;20439;-76
2022/05/17 06:50:04;;;;;;;12.13;8.00;;;26.90;56.50;;;;;;5035846;28;20033;-75
2022/05/17 06:52:30;;;;;;;11.90;8.82;;;26.90;55.80;;;;;;5035350;28;20021;-75
2022/05/17 06:54:56;;;;;;;12.20;8.02;;;27.00;56.10;;;;;;5019600;28;20108;-81
2022/05/17 06:57:22;;;;;;;12.27;8.77;;;27.10;56.00;;;;;;4998168;28;20204;-74
2022/05/17 06:59:48;;;;;;;9.88;8.35;;;27.10;56.10;;;;;;5015651;28;20026;-80
2022/05/17 07:02:13;;;;;;;13.93;9.02;;;26.90;55.80;;;;;;5015861;28;20018;-75
2022/05/17 07:04:40;;;;;;;13.23;8.95;;;26.90;56.30;;;;;;5027921;28;20030;-75
2022/05/17 07:07:07;;;;;;;14.23;8.60;;;27.00;55.70;;;;;;5035443;28;20026;-77
2022/05/17 07:09:34;;;;;;;10.35;8.35;;;27.10;55.90;;;;;;5013899;28;20025;-77
2022/05/17 07:14:44;;;;;;;14.70;8.60;;;27.20;55.40;;;;;;5022447;28;20053;-82
2022/05/17 07:17:18;;;;;;;12.10;9.55;;;27.10;55.30;;;;;;5015200;28;20025;-75
2022/05/17 07:19:45;;;;;;;14.32;8.65;;;27.10;55.30;;;;;;5026262;28;20029;-78
2022/05/17 07:22:11;;;;;;;12.43;8.82;;;27.00;55.90;;;;;;5034779;28;20112;-77
2022/05/17 07:24:37;;;;;;;13.52;9.27;;;27.20;55.80;;;;;;5035496;28;20404;-78
2022/05/17 07:27:05;;;;;;;10.98;8.82;;;27.20;55.60;;;;;;5019793;28;20037;-77
2022/05/17 07:29:32;;;;;;;12.57;8.32;;;27.50;55.70;;;;;;5008808;28;20084;-79
2022/05/17 07:31:58;;;;;;;11.98;8.80;;;27.50;55.30;;;;;;5009231;28;20022;-86
2022/05/17 07:34:24;;;;;;;16.23;9.13;;;27.50;55.10;;;;;;5018278;28;20026;-75
2022/05/17 07:36:50;;;;;;;11.35;9.02;;;27.70;55.30;;;;;;4997521;28;20083;-84
2022/05/17 07:39:16;;;;;;;14.13;8.70;;;27.80;55.00;;;;;;4997567;28;20029;-79
2022/05/17 07:41:42;;;;;;;10.93;8.52;;;27.80;55.20;;;;;;5015105;28;20026;-84
2022/05/17 07:44:08;;;;;;;11.38;8.45;;;27.80;55.30;;;;;;5001405;28;20093;-77
2022/05/17 07:46:34;;;;;;;13.75;9.00;;;27.70;55.20;;;;;;5017285;28;20036;-76
2022/05/17 07:49:00;;;;;;;13.82;9.88;;;27.50;55.60;;;;;;5035026;28;20026;-82
2022/05/17 07:51:27;;;;;;;13.18;8.80;;;27.30;55.80;;;;;;5028363;28;20034;-77
2022/05/17 07:53:53;;;;;;;14.40;8.65;;;27.40;56.10;;;;;;5015145;28;20041;-77
2022/05/17 07:56:19;;;;;;;11.82;8.93;;;27.50;55.90;;;;;;5014445;28;20022;-80
2022/05/17 07:58:45;;;;;;;12.23;8.68;;;27.50;55.60;;;;;;5014835;28;20018;-85
2022/05/17 08:01:11;;;;;;;11.50;8.90;;;27.50;55.70;;;;;;5017669;28;20053;-78
2022/05/17 08:03:36;;;;;;;12.73;9.20;;;27.60;55.80;;;;;;5017261;28;20017;-90
2022/05/17 08:06:02;;;;;;;11.27;8.52;;;27.50;55.50;;;;;;5016044;28;20048;-77
2022/05/17 08:08:28;;;;;;;14.05;9.45;;;27.70;55.80;;;;;;5033778;28;20548;-77
2022/05/17 08:10:53;;;;;;;11.18;8.85;;;28.00;55.70;;;;;;5033417;28;20038;-85
2022/05/17 08:13:21;;;;;;;13.50;9.50;;;27.70;55.60;;;;;;4996949;28;20034;-77
2022/05/17 08:15:48;;;;;;;12.25;8.73;;;27.60;55.80;;;;;;5014422;28;20029;-79
2022/05/17 08:18:14;;;;;;;13.88;8.40;;;27.30;56.70;;;;;;4996751;28;20112;-77
2022/05/17 08:20:41;;;;;;;9.65;8.50;;;27.20;56.50;;;;;;5013945;28;20041;-79
2022/05/17 08:23:06;;;;;;;12.45;9.27;;;27.00;56.90;;;;;;5032737;28;20022;-76
2022/05/17 08:28:17;;;;;;;12.63;9.35;;;27.00;56.40;;;;;;5033761;28;20033;-79
2022/05/17 08:30:44;;;;;;;11.48;9.10;;;26.90;56.70;;;;;;5034419;28;20026;-77
2022/05/17 08:33:15;;;;;;;12.88;8.57;;;26.90;56.60;;;;;;4996685;28;20126;-79
2022/05/17 08:36:03;;;;;;;10.50;8.05;;;27.10;57.00;;;;;;4996984;28;20128;-79
2022/05/17 08:38:36;;;;;;;11.27;8.48;;;27.20;56.60;;;;;;5013631;28;20099;-76
2022/05/17 08:41:24;;;;;;;8.60;7.35;;;27.40;56.30;;;;;;4997003;28;20253;-78
2022/05/17 08:43:56;;;;;;;12.40;8.57;;;27.30;56.20;;;;;;5033218;28;20426;-76
2022/05/17 08:46:43;;;;;;;11.45;8.35;;;27.10;56.50;;;;;;5033724;28;20033;-79
2022/05/17 08:49:31;;;;;;;13.63;8.32;;;27.10;56.40;;;;;;5015565;28;20167;-80
2022/05/17 08:52:17;;;;;;;13.55;8.38;;;27.00;56.30;;;;;;5025096;28;20018;-77
2022/05/17 08:55:02;;;;;;;11.27;8.32;;;27.30;56.20;;;;;;5013443;28;20061;-76
2022/05/17 08:57:46;;;;;;;11.25;8.45;;;27.40;55.70;;;;;;5013996;28;20034;-77
2022/05/17 09:00:40;;;;;;;11.35;8.18;;;27.50;56.00;;;;;;5013854;28;20084;-77
2022/05/17 09:03:22;;;;;;;12.10;8.50;;;27.50;55.30;;;;;;5012454;28;20108;-78
2022/05/17 09:06:29;;;;;;;11.20;7.90;;;27.40;55.80;;;;;;5033859;28;20064;-79
2022/05/17 09:09:22;;;;;;;11.05;8.80;;;27.50;55.10;;;;;;5016804;28;20025;-77
2022/05/17 09:12:00;;;;;;;11.00;7.93;;;27.70;55.80;;;;;;5025989;28;20022;-78
2022/05/17 09:14:40;;;;;;;9.60;7.78;;;28.00;56.10;;;;;;5013738;28;20108;-77
2022/05/17 09:17:15;;;;;;;11.38;8.23;;;28.20;55.80;;;;;;4995742;28;20025;-78
2022/05/17 09:19:43;;;;;;;10.45;8.43;;;28.30;55.10;;;;;;4995443;28;20037;-82
2022/05/17 09:22:10;;;;;;;9.93;7.50;;;28.10;54.90;;;;;;5022066;28;20022;-78
2022/05/17 09:24:39;;;;;;;11.20;8.23;;;28.00;55.40;;;;;;5032771;28;20026;-77
2022/05/17 09:27:20;;;;;;;11.05;8.20;;;27.60;55.00;;;;;;5033499;28;20026;-79
2022/05/17 09:29:48;;;;;;;9.65;7.93;;;27.60;55.80;;;;;;5032931;28;20018;-77
2022/05/17 09:32:31;;;;;;;10.60;7.70;;;27.60;55.70;;;;;;5004861;28;20500;-78
2022/05/17 09:35:22;;;;;;;12.32;7.28;;;27.90;55.30;;;;;;5013014;28;20076;-78
2022/05/17 09:37:53;;;;;;;8.93;7.35;;;28.10;55.30;;;;;;4995076;28;20030;-76
2022/05/17 09:40:27;;;;;;;12.95;9.55;;;28.10;55.10;;;;;;5012738;28;20026;-76
2022/05/17 09:43:02;;;;;;;9.95;7.18;;;28.20;55.70;;;;;;5027240;28;20044;-85
2022/05/17 09:54:47;;;;;;;12.25;7.00;;;27.70;55.40;;;;;;5012802;28;20108;-76
2022/05/17 09:57:25;;;;;;;9.55;7.40;;;27.50;55.70;;;;;;5013495;28;20029;-77
2022/05/17 10:00:08;;;;;;;12.25;6.60;;;27.50;55.60;;;;;;5025074;28;20041;-77
2022/05/17 10:02:49;;;;;;;10.38;6.75;;;27.90;54.80;;;;;;5032360;28;20127;-78
2022/05/17 10:05:37;;;;;;;10.50;6.85;;;28.20;54.80;;;;;;5014626;28;20022;-77
2022/05/17 10:08:38;;;;;;;10.82;6.85;;;28.50;54.40;;;;;;5032091;28;20025;-77
2022/05/17 10:11:20;;;;;;;10.77;7.05;;;28.80;54.30;;;;;;4952322;29;20414;-77
2022/05/17 10:14:09;;;;;;;12.38;6.93;;;28.90;54.30;;;;;;4952126;28;20080;-76
2022/05/17 10:16:49;;;;;;;7.63;5.93;;;29.00;54.60;;;;;;4952890;29;20074;-78
2022/05/17 10:19:17;;;;;;;;;;;29.00;53.80;;;;;;4944328;28;20031;-77
2022/05/17 10:21:58;;;;;;;11.10;5.93;;;28.70;53.50;;;;;;4955012;28;19965;-76
2022/05/17 10:24:41;;;;;;;11.30;6.97;;;28.60;54.30;;;;;;4972130;28;20035;-78
2022/05/17 10:27:35;;;;;;;12.73;6.13;;;28.50;54.60;;;;;;4972486;28;20582;-78
2022/05/17 10:30:07;;;;;;;9.93;7.20;;;28.40;54.40;;;;;;4970704;28;20116;-77
2022/05/17 10:33:00;;;;;;;9.55;6.53;;;28.50;54.40;;;;;;4974871;28;20031;-79
2022/05/17 10:35:38;;;;;;;10.07;7.15;;;28.90;54.40;;;;;;4974706;28;20121;-78
2022/05/17 10:38:33;;;;;;;8.73;6.68;;;29.20;53.30;;;;;;4975958;28;20031;-78
2022/05/17 10:40:59;;;;;;;11.07;6.57;;;29.50;53.50;;;;;;4965000;28;20090;-78
2022/05/17 10:43:35;;;;;;;11.88;6.70;;;29.60;53.10;;;;;;4974955;28;20031;-78
2022/05/17 10:46:10;;;;;;;10.65;6.55;;;29.80;52.30;;;;;;4974906;28;20036;-79
2022/05/17 10:48:57;;;;;;;8.63;6.20;;;29.50;52.30;;;;;;5007971;28;20042;-77
2022/05/17 10:51:35;;;;;;;8.45;5.70;;;29.60;52.40;;;;;;4998558;28;20026;-83
2022/05/17 10:54:38;;;;;;;8.52;5.50;;;29.70;52.80;;;;;;5016074;28;20049;-83
2022/05/17 10:57:38;;;;;;;8.73;5.40;;;29.30;51.90;;;;;;4998624;28;20069;-78
2022/05/17 11:00:23;;;;;;;7.57;5.05;;;29.20;52.00;;;;;;5030100;28;20048;-81
2022/05/17 11:03:10;;;;;;;10.20;4.72;;;29.40;51.90;;;;;;5035672;28;20502;-80
2022/05/17 11:05:47;;;;;;;8.40;4.82;;;29.20;50.60;;;;;;5018514;28;20033;-78
2022/05/17 11:08:19;;;;;;;10.10;4.88;;;29.30;49.90;;;;;;5017429;28;20108;-77
2022/05/17 11:11:25;;;;;;;8.73;4.75;;;29.70;49.80;;;;;;5015956;28;20075;-89
2022/05/17 11:14:12;;;;;;;20.65;5.18;;;29.30;49.40;;;;;;5014846;28;20038;-78
2022/05/17 11:17:00;;;;;;;7.03;4.78;;;29.40;50.60;;;;;;4998369;28;20045;-79
2022/05/17 11:19:49;;;;;;;8.57;5.05;;;29.80;49.70;;;;;;5005881;28;20021;-78
2022/05/17 11:22:21;;;;;;;7.13;4.68;;;29.60;50.20;;;;;;5017646;28;20034;-77
2022/05/17 11:25:14;;;;;;;9.50;5.28;;;29.40;49.50;;;;;;5034967;28;20029;-83
2022/05/17 11:28:03;;;;;;;8.00;5.30;;;29.40;51.40;;;;;;5025174;28;20021;-79
2022/05/17 11:30:49;;;;;;;8.55;5.40;;;29.40;51.00;;;;;;5015064;28;20109;-88
2022/05/17 11:33:29;;;;;;;7.53;4.53;;;29.60;50.50;;;;;;5016334;28;20532;-81
2022/05/17 11:36:04;;;;;;;6.43;4.50;;;29.60;49.60;;;;;;4998279;28;20049;-79
2022/05/17 11:38:36;;;;;;;8.38;5.00;;;29.60;49.40;;;;;;5009947;28;20036;-79
2022/05/17 11:41:42;;;;;;;6.25;4.50;;;29.70;50.30;;;;;;5018554;28;20089;-82
2022/05/17 11:44:27;;;;;;;7.28;4.65;;;29.60;50.60;;;;;;5015254;28;20034;-79
2022/05/17 11:46:58;;;;;;;8.13;4.88;;;29.70;50.80;;;;;;5036080;28;20109;-88
2022/05/17 11:49:30;;;;;;;9.05;4.78;;;29.80;50.00;;;;;;5012812;28;20022;-86
2022/05/17 11:51:59;;;;;;;7.43;4.30;;;29.60;50.10;;;;;;4997467;28;20022;-79
2022/05/17 11:54:45;;;;;;;8.13;4.57;;;29.40;49.70;;;;;;4994288;28;20034;-77
2022/05/17 11:57:23;;;;;;;8.43;3.95;;;29.40;50.00;;;;;;4994315;28;20085;-77
2022/05/17 12:00:01;;;;;;;7.95;4.60;;;29.50;49.20;;;;;;4994760;28;20029;-77
2022/05/17 12:02:47;;;;;;;7.20;4.50;;;29.60;50.30;;;;;;4994871;28;20429;-78
2022/05/17 12:05:47;;;;;;;13.57;5.00;;;29.70;49.80;;;;;;5010746;28;20026;-78
2022/05/17 12:08:32;;;;;;;7.40;4.15;;;29.80;49.50;;;;;;5013263;28;20548;-78
2022/05/17 12:11:07;;;;;;;8.07;4.82;;;29.60;50.60;;;;;;5014052;28;20022;-77
2022/05/17 12:13:49;;;;;;;8.02;4.50;;;29.30;53.20;;;;;;5014120;28;20033;-75
2022/05/17 12:16:32;;;;;;;7.13;4.53;;;29.20;53.40;;;;;;5012571;28;20029;-76
2022/05/17 12:19:06;;;;;;;6.60;4.50;;;28.70;53.50;;;;;;5014200;28;20092;-78
2022/05/17 12:22:04;;;;;;;6.53;4.32;;;28.20;53.50;;;;;;5012610;28;20122;-76
2022/05/17 12:24:44;;;;;;;10.43;5.20;;;28.10;54.50;;;;;;5006116;28;20117;-77
2022/05/17 12:27:17;;;;;;;8.73;4.40;;;28.20;54.60;;;;;;5001086;28;20018;-76
2022/05/17 12:32:36;;;;;;;6.72;4.20;;;28.80;52.50;;;;;;5001258;28;20109;-76
2022/05/17 12:35:05;;;;;;;9.73;4.93;;;29.10;52.00;;;;;;5004878;28;20034;-76
2022/05/17 12:37:31;;;;;;;7.85;5.32;;;29.20;52.40;;;;;;5001954;28;20019;-78
2022/05/17 12:43:02;;;;;;;8.23;5.72;;;29.50;53.20;;;;;;4999614;28;20167;-78
2022/05/17 12:45:33;;;;;;;13.27;6.00;;;29.30;52.30;;;;;;5028669;28;20523;-78
2022/05/17 12:48:01;;;;;;;9.70;5.53;;;29.10;53.30;;;;;;5013523;28;20036;-78
2022/05/17 12:50:45;;;;;;;6.18;4.80;;;29.20;53.10;;;;;;5013360;28;20022;-77
2022/05/17 12:53:19;;;;;;;8.57;5.60;;;29.50;53.50;;;;;;5011852;28;20449;-78
2022/05/17 12:56:29;;;;;;;7.35;5.28;;;29.10;53.60;;;;;;5029782;28;20108;-78
2022/05/17 12:59:01;;;;;;;9.27;5.70;;;29.00;53.50;;;;;;5031068;28;20048;-78
2022/05/17 13:01:30;;;;;;;8.75;5.80;;;29.20;53.20;;;;;;5029949;28;20041;-78
2022/05/17 13:04:03;;;;;;;9.73;5.95;;;29.50;52.80;;;;;;5031593;28;20026;-78
2022/05/17 13:06:39;;;;;;;10.30;5.78;;;29.60;52.70;;;;;;5021308;28;20034;-77
2022/05/17 13:09:06;;;;;;;9.73;5.55;;;29.60;52.80;;;;;;5020693;28;20017;-82
2022/05/17 13:11:32;;;;;;;6.97;4.78;;;29.60;52.40;;;;;;5009407;28;20027;-78
2022/05/17 13:14:23;;;;;;;8.77;4.65;;;29.40;52.00;;;;;;5021381;28;20105;-76
2022/05/17 13:16:51;;;;;;;6.78;3.92;;;29.20;51.60;;;;;;5021489;28;20013;-75
2022/05/17 13:19:20;;;;;;;5.15;3.50;;;29.10;51.20;;;;;;5018851;28;20396;-79
2022/05/17 13:21:51;;;;;;;9.93;4.15;;;29.00;51.20;;;;;;5019071;28;20384;-77
2022/05/17 13:24:30;;;;;;;6.60;4.00;;;29.00;51.70;;;;;;5019870;28;20041;-75
2022/05/17 13:27:01;;;;;;;7.90;5.60;;;28.90;52.00;;;;;;5021651;28;20074;-77